sensor_id;sensor_type;location;lat;lon;timestamp;temperature;humidity
17266;DHT22;8749;47.076;15.412;2022-08-02T00:02:07;24.70;99.10
17266;DHT22;8749;47.076;15.412;2022-08-02T00:04:34;24.60;99.10
17266;DHT22;8749;47.076;15.412;2022-08-02T00:07:01;24.60;99.20
17266;DHT22;8749;47.076;15.412;2022-08-02T00:09:28;24.60;99.10
17266;DHT22;8749;47.076;15.412;2022-08-02T00:11:55;24.50;99.20
17266;DHT22;8749;47.076;15.412;2022-08-02T00:14:24;24.50;99.30
17266;DHT22;8749;47.076;15.412;2022-08-02T00:16:51;24.50;99.30
17266;DHT22;8749;47.076;15.412;2022-08-02T00:19:18;24.50;99.40
17266;DHT22;8749;47.076;15.412;2022-08-02T00:21:45;24.50;99.30
17266;DHT22;8749;47.076;15.412;2022-08-02T00:24:12;24.50;99.20
17266;DHT22;8749;47.076;15.412;2022-08-02T00:26:39;24.20;99.90
17266;DHT22;8749;47.076;15.412;2022-08-02T00:29:06;24.10;99.90
17266;DHT22;8749;47.076;15.412;2022-08-02T00:31:34;24.10;99.90
17266;DHT22;8749;47.076;15.412;2022-08-02T00:34:01;24.30;99.90
17266;DHT22;8749;47.076;15.412;2022-08-02T00:36:28;24.10;99.90
17266;DHT22;8749;47.076;15.412;2022-08-02T00:38:55;23.70;99.90
17266;DHT22;8749;47.076;15.412;2022-08-02T00:41:23;23.60;99.90
17266;DHT22;8749;47.076;15.412;2022-08-02T00:43:51;23.50;99.90
17266;DHT22;8749;47.076;15.412;2022-08-02T00:46:19;23.60;99.90
17266;DHT22;8749;47.076;15.412;2022-08-02T00:48:48;23.70;99.90
17266;DHT22;8749;47.076;15.412;2022-08-02T00:51:15;23.80;99.90
17266;DHT22;8749;47.076;15.412;2022-08-02T00:53:42;24.00;99.90
17266;DHT22;8749;47.076;15.412;2022-08-02T00:56:09;24.00;99.90
17266;DHT22;8749;47.076;15.412;2022-08-02T00:58:36;24.00;99.90
17266;DHT22;8749;47.076;15.412;2022-08-02T01:01:03;24.10;99.90
17266;DHT22;8749;47.076;15.412;2022-08-02T01:03:30;24.30;99.90
17266;DHT22;8749;47.076;15.412;2022-08-02T01:05:59;24.40;99.90
17266;DHT22;8749;47.076;15.412;2022-08-02T01:08:26;24.40;99.40
17266;DHT22;8749;47.076;15.412;2022-08-02T01:10:53;24.50;99.20
17266;DHT22;8749;47.076;15.412;2022-08-02T01:13:20;24.50;99.20
17266;DHT22;8749;47.076;15.412;2022-08-02T01:15:54;24.60;99.20
17266;DHT22;8749;47.076;15.412;2022-08-02T01:18:27;24.60;99.10
17266;DHT22;8749;47.076;15.412;2022-08-02T01:21:15;24.70;99.40
17266;DHT22;8749;47.076;15.412;2022-08-02T01:24:09;24.70;99.60
17266;DHT22;8749;47.076;15.412;2022-08-02T01:26:42;24.70;99.80
17266;DHT22;8749;47.076;15.412;2022-08-02T01:29:17;24.70;99.70
17266;DHT22;8749;47.076;15.412;2022-08-02T01:31:49;24.70;99.80
17266;DHT22;8749;47.076;15.412;2022-08-02T01:34:20;24.70;99.80
17266;DHT22;8749;47.076;15.412;2022-08-02T01:36:53;24.60;99.40
17266;DHT22;8749;47.076;15.412;2022-08-02T01:39:25;24.60;99.50
17266;DHT22;8749;47.076;15.412;2022-08-02T01:41:53;24.50;99.80
17266;DHT22;8749;47.076;15.412;2022-08-02T01:44:24;24.50;99.90
17266;DHT22;8749;47.076;15.412;2022-08-02T01:46:55;24.50;99.90
17266;DHT22;8749;47.076;15.412;2022-08-02T01:49:23;24.40;99.90
17266;DHT22;8749;47.076;15.412;2022-08-02T01:51:53;24.50;99.90
17266;DHT22;8749;47.076;15.412;2022-08-02T01:54:40;24.50;99.90
17266;DHT22;8749;47.076;15.412;2022-08-02T01:57:09;24.50;99.90
17266;DHT22;8749;47.076;15.412;2022-08-02T01:59:39;24.50;99.90
17266;DHT22;8749;47.076;15.412;2022-08-02T02:02:09;24.50;99.90
17266;DHT22;8749;47.076;15.412;2022-08-02T02:04:37;24.50;99.90
17266;DHT22;8749;47.076;15.412;2022-08-02T02:07:04;24.50;99.90
17266;DHT22;8749;47.076;15.412;2022-08-02T02:09:37;24.50;99.90
17266;DHT22;8749;47.076;15.412;2022-08-02T02:12:05;24.40;99.90
17266;DHT22;8749;47.076;15.412;2022-08-02T02:14:34;24.40;99.90
17266;DHT22;8749;47.076;15.412;2022-08-02T02:17:04;24.30;99.90
17266;DHT22;8749;47.076;15.412;2022-08-02T02:19:33;24.40;99.90
17266;DHT22;8749;47.076;15.412;2022-08-02T02:22:02;24.40;99.90
17266;DHT22;8749;47.076;15.412;2022-08-02T02:24:29;24.40;99.90
17266;DHT22;8749;47.076;15.412;2022-08-02T02:26:57;24.40;99.90
17266;DHT22;8749;47.076;15.412;2022-08-02T02:29:28;24.40;99.90
17266;DHT22;8749;47.076;15.412;2022-08-02T02:31:57;24.40;99.90
17266;DHT22;8749;47.076;15.412;2022-08-02T02:34:29;24.50;99.00
17266;DHT22;8749;47.076;15.412;2022-08-02T02:37:01;24.50;99.60
17266;DHT22;8749;47.076;15.412;2022-08-02T02:39:31;24.50;99.60
17266;DHT22;8749;47.076;15.412;2022-08-02T02:42:01;24.40;99.60
17266;DHT22;8749;47.076;15.412;2022-08-02T02:44:30;24.40;99.70
17266;DHT22;8749;47.076;15.412;2022-08-02T02:46:58;24.40;99.70
17266;DHT22;8749;47.076;15.412;2022-08-02T02:49:31;24.40;99.60
17266;DHT22;8749;47.076;15.412;2022-08-02T02:51:59;24.40;99.60
17266;DHT22;8749;47.076;15.412;2022-08-02T02:54:26;24.40;99.50
17266;DHT22;8749;47.076;15.412;2022-08-02T02:56:54;24.30;99.60
17266;DHT22;8749;47.076;15.412;2022-08-02T02:59:21;24.30;99.40
17266;DHT22;8749;47.076;15.412;2022-08-02T03:01:48;24.30;99.50
17266;DHT22;8749;47.076;15.412;2022-08-02T03:04:15;24.30;99.40
17266;DHT22;8749;47.076;15.412;2022-08-02T03:06:43;24.20;99.40
17266;DHT22;8749;47.076;15.412;2022-08-02T03:09:11;24.20;99.30
17266;DHT22;8749;47.076;15.412;2022-08-02T03:11:39;24.20;99.10
17266;DHT22;8749;47.076;15.412;2022-08-02T03:14:09;24.20;98.80
17266;DHT22;8749;47.076;15.412;2022-08-02T03:16:42;24.20;99.00
17266;DHT22;8749;47.076;15.412;2022-08-02T03:19:09;24.20;99.50
17266;DHT22;8749;47.076;15.412;2022-08-02T03:21:36;24.10;99.70
17266;DHT22;8749;47.076;15.412;2022-08-02T03:24:05;24.10;99.90
17266;DHT22;8749;47.076;15.412;2022-08-02T03:26:32;24.10;99.90
17266;DHT22;8749;47.076;15.412;2022-08-02T03:28:59;24.00;99.90
17266;DHT22;8749;47.076;15.412;2022-08-02T03:31:26;24.00;99.80
17266;DHT22;8749;47.076;15.412;2022-08-02T03:33:54;24.00;99.90
17266;DHT22;8749;47.076;15.412;2022-08-02T03:36:23;24.00;99.90
17266;DHT22;8749;47.076;15.412;2022-08-02T03:38:51;24.00;99.90
17266;DHT22;8749;47.076;15.412;2022-08-02T03:41:21;23.90;99.90
17266;DHT22;8749;47.076;15.412;2022-08-02T03:43:49;23.90;99.90
17266;DHT22;8749;47.076;15.412;2022-08-02T03:46:19;23.90;99.90
17266;DHT22;8749;47.076;15.412;2022-08-02T03:48:47;23.90;99.90
17266;DHT22;8749;47.076;15.412;2022-08-02T03:51:15;23.90;99.90
17266;DHT22;8749;47.076;15.412;2022-08-02T03:53:42;23.90;99.90
17266;DHT22;8749;47.076;15.412;2022-08-02T03:56:10;23.90;99.90
17266;DHT22;8749;47.076;15.412;2022-08-02T03:58:38;24.00;99.90
17266;DHT22;8749;47.076;15.412;2022-08-02T04:01:05;24.00;99.90
17266;DHT22;8749;47.076;15.412;2022-08-02T04:03:32;23.90;99.90
17266;DHT22;8749;47.076;15.412;2022-08-02T04:05:59;23.90;99.90
17266;DHT22;8749;47.076;15.412;2022-08-02T04:08:26;23.90;99.90
17266;DHT22;8749;47.076;15.412;2022-08-02T04:10:52;23.90;99.90
17266;DHT22;8749;47.076;15.412;2022-08-02T04:13:38;23.90;99.90
17266;DHT22;8749;47.076;15.412;2022-08-02T04:16:09;24.00;99.90
17266;DHT22;8749;47.076;15.412;2022-08-02T04:18:45;24.10;99.90
17266;DHT22;8749;47.076;15.412;2022-08-02T04:21:17;24.10;99.90
17266;DHT22;8749;47.076;15.412;2022-08-02T04:23:46;24.10;99.90
17266;DHT22;8749;47.076;15.412;2022-08-02T04:26:14;24.10;99.90
17266;DHT22;8749;47.076;15.412;2022-08-02T04:28:43;24.10;99.90
17266;DHT22;8749;47.076;15.412;2022-08-02T04:31:11;24.10;99.90
17266;DHT22;8749;47.076;15.412;2022-08-02T04:33:38;24.10;99.90
17266;DHT22;8749;47.076;15.412;2022-08-02T04:36:06;24.20;99.90
17266;DHT22;8749;47.076;15.412;2022-08-02T04:38:33;24.10;99.90
17266;DHT22;8749;47.076;15.412;2022-08-02T04:41:00;24.20;99.90
17266;DHT22;8749;47.076;15.412;2022-08-02T04:43:27;24.20;99.90
17266;DHT22;8749;47.076;15.412;2022-08-02T04:45:55;24.30;99.90
17266;DHT22;8749;47.076;15.412;2022-08-02T04:48:22;24.30;99.90
17266;DHT22;8749;47.076;15.412;2022-08-02T04:50:50;24.30;99.90
17266;DHT22;8749;47.076;15.412;2022-08-02T04:53:17;24.30;99.90
17266;DHT22;8749;47.076;15.412;2022-08-02T04:55:44;24.40;99.90
17266;DHT22;8749;47.076;15.412;2022-08-02T04:58:12;24.40;99.90
17266;DHT22;8749;47.076;15.412;2022-08-02T05:00:39;24.40;99.90
17266;DHT22;8749;47.076;15.412;2022-08-02T05:03:07;24.40;99.90
17266;DHT22;8749;47.076;15.412;2022-08-02T05:05:34;24.50;99.90
17266;DHT22;8749;47.076;15.412;2022-08-02T05:08:02;24.50;99.90
17266;DHT22;8749;47.076;15.412;2022-08-02T05:10:29;24.60;99.90
17266;DHT22;8749;47.076;15.412;2022-08-02T05:12:55;24.70;99.90
17266;DHT22;8749;47.076;15.412;2022-08-02T05:15:22;24.70;99.90
17266;DHT22;8749;47.076;15.412;2022-08-02T05:17:49;24.50;99.90
17266;DHT22;8749;47.076;15.412;2022-08-02T05:20:18;24.50;99.90
17266;DHT22;8749;47.076;15.412;2022-08-02T05:22:45;24.50;99.90
17266;DHT22;8749;47.076;15.412;2022-08-02T05:25:13;24.40;99.90
17266;DHT22;8749;47.076;15.412;2022-08-02T05:27:40;24.40;99.90
17266;DHT22;8749;47.076;15.412;2022-08-02T05:30:08;24.30;99.90
17266;DHT22;8749;47.076;15.412;2022-08-02T05:32:41;24.30;99.90
17266;DHT22;8749;47.076;15.412;2022-08-02T05:35:08;24.20;99.90
17266;DHT22;8749;47.076;15.412;2022-08-02T05:37:36;24.30;99.90
17266;DHT22;8749;47.076;15.412;2022-08-02T05:40:04;24.20;99.90
17266;DHT22;8749;47.076;15.412;2022-08-02T05:42:32;24.30;99.90
17266;DHT22;8749;47.076;15.412;2022-08-02T05:44:59;24.40;99.90
17266;DHT22;8749;47.076;15.412;2022-08-02T05:47:26;24.40;99.90
17266;DHT22;8749;47.076;15.412;2022-08-02T05:49:53;24.50;99.90
17266;DHT22;8749;47.076;15.412;2022-08-02T05:52:21;24.60;99.90
17266;DHT22;8749;47.076;15.412;2022-08-02T05:54:54;24.60;99.90
17266;DHT22;8749;47.076;15.412;2022-08-02T05:57:32;24.70;99.90
17266;DHT22;8749;47.076;15.412;2022-08-02T06:00:05;24.60;99.90
17266;DHT22;8749;47.076;15.412;2022-08-02T06:02:43;24.70;99.90
17266;DHT22;8749;47.076;15.412;2022-08-02T06:05:16;24.80;99.90
17266;DHT22;8749;47.076;15.412;2022-08-02T06:07:45;24.80;99.90
17266;DHT22;8749;47.076;15.412;2022-08-02T06:10:15;25.00;99.90
17266;DHT22;8749;47.076;15.412;2022-08-02T06:12:47;25.00;99.90
17266;DHT22;8749;47.076;15.412;2022-08-02T06:15:15;25.10;99.90
17266;DHT22;8749;47.076;15.412;2022-08-02T06:17:43;25.20;99.90
17266;DHT22;8749;47.076;15.412;2022-08-02T06:20:11;25.20;99.90
17266;DHT22;8749;47.076;15.412;2022-08-02T06:22:40;25.40;99.90
17266;DHT22;8749;47.076;15.412;2022-08-02T06:25:09;25.60;99.90
17266;DHT22;8749;47.076;15.412;2022-08-02T06:27:38;25.60;99.90
17266;DHT22;8749;47.076;15.412;2022-08-02T06:30:07;25.80;99.90
17266;DHT22;8749;47.076;15.412;2022-08-02T06:32:34;25.90;99.90
17266;DHT22;8749;47.076;15.412;2022-08-02T06:35:02;25.90;99.90
17266;DHT22;8749;47.076;15.412;2022-08-02T06:37:36;26.10;99.90
17266;DHT22;8749;47.076;15.412;2022-08-02T06:40:12;26.10;99.20
17266;DHT22;8749;47.076;15.412;2022-08-02T06:42:48;26.20;98.90
17266;DHT22;8749;47.076;15.412;2022-08-02T06:45:17;26.30;98.60
17266;DHT22;8749;47.076;15.412;2022-08-02T06:47:44;26.30;98.20
17266;DHT22;8749;47.076;15.412;2022-08-02T06:50:11;26.30;98.00
17266;DHT22;8749;47.076;15.412;2022-08-02T06:52:39;26.30;98.10
17266;DHT22;8749;47.076;15.412;2022-08-02T06:55:07;26.40;97.90
17266;DHT22;8749;47.076;15.412;2022-08-02T06:57:34;26.50;98.00
17266;DHT22;8749;47.076;15.412;2022-08-02T07:00:04;26.50;97.90
17266;DHT22;8749;47.076;15.412;2022-08-02T07:02:34;26.60;97.80
17266;DHT22;8749;47.076;15.412;2022-08-02T07:05:01;26.60;97.60
17266;DHT22;8749;47.076;15.412;2022-08-02T07:07:28;26.60;97.50
17266;DHT22;8749;47.076;15.412;2022-08-02T07:09:55;26.60;97.40
17266;DHT22;8749;47.076;15.412;2022-08-02T07:12:21;26.60;97.40
17266;DHT22;8749;47.076;15.412;2022-08-02T07:14:48;26.60;97.60
17266;DHT22;8749;47.076;15.412;2022-08-02T07:17:17;26.60;97.50
17266;DHT22;8749;47.076;15.412;2022-08-02T07:19:44;26.60;97.20
17266;DHT22;8749;47.076;15.412;2022-08-02T07:22:10;26.60;97.20
17266;DHT22;8749;47.076;15.412;2022-08-02T07:24:38;26.50;97.20
17266;DHT22;8749;47.076;15.412;2022-08-02T07:27:05;26.60;97.40
17266;DHT22;8749;47.076;15.412;2022-08-02T07:29:32;26.50;96.80
17266;DHT22;8749;47.076;15.412;2022-08-02T07:31:59;26.60;97.10
17266;DHT22;8749;47.076;15.412;2022-08-02T07:34:27;26.60;96.70
17266;DHT22;8749;47.076;15.412;2022-08-02T07:36:54;26.60;96.70
17266;DHT22;8749;47.076;15.412;2022-08-02T07:39:21;26.70;96.60
17266;DHT22;8749;47.076;15.412;2022-08-02T07:41:48;26.70;96.60
17266;DHT22;8749;47.076;15.412;2022-08-02T07:44:17;26.80;96.50
17266;DHT22;8749;47.076;15.412;2022-08-02T07:46:44;26.80;96.60
17266;DHT22;8749;47.076;15.412;2022-08-02T07:49:11;26.80;96.00
17266;DHT22;8749;47.076;15.412;2022-08-02T07:51:44;26.70;96.00
17266;DHT22;8749;47.076;15.412;2022-08-02T07:54:11;26.70;96.50
17266;DHT22;8749;47.076;15.412;2022-08-02T07:56:38;26.70;96.50
17266;DHT22;8749;47.076;15.412;2022-08-02T07:59:05;26.70;96.50
17266;DHT22;8749;47.076;15.412;2022-08-02T08:01:31;26.60;96.60
17266;DHT22;8749;47.076;15.412;2022-08-02T08:03:58;26.70;96.70
17266;DHT22;8749;47.076;15.412;2022-08-02T08:06:25;26.80;96.60
17266;DHT22;8749;47.076;15.412;2022-08-02T08:08:54;26.80;96.00
17266;DHT22;8749;47.076;15.412;2022-08-02T08:11:21;26.90;96.00
17266;DHT22;8749;47.076;15.412;2022-08-02T08:13:48;26.90;95.70
17266;DHT22;8749;47.076;15.412;2022-08-02T08:16:15;26.80;95.40
17266;DHT22;8749;47.076;15.412;2022-08-02T08:18:43;26.80;95.60
17266;DHT22;8749;47.076;15.412;2022-08-02T08:21:10;26.90;95.70
17266;DHT22;8749;47.076;15.412;2022-08-02T08:23:36;26.90;95.50
17266;DHT22;8749;47.076;15.412;2022-08-02T08:26:05;27.10;95.50
17266;DHT22;8749;47.076;15.412;2022-08-02T08:28:32;27.20;95.30
17266;DHT22;8749;47.076;15.412;2022-08-02T08:31:00;27.30;95.10
17266;DHT22;8749;47.076;15.412;2022-08-02T08:33:27;27.30;94.90
17266;DHT22;8749;47.076;15.412;2022-08-02T08:35:54;27.40;94.80
17266;DHT22;8749;47.076;15.412;2022-08-02T08:38:22;27.40;94.50
17266;DHT22;8749;47.076;15.412;2022-08-02T08:40:49;27.50;94.30
17266;DHT22;8749;47.076;15.412;2022-08-02T08:43:17;27.50;94.40
17266;DHT22;8749;47.076;15.412;2022-08-02T08:45:45;27.50;94.50
17266;DHT22;8749;47.076;15.412;2022-08-02T08:48:13;27.60;94.40
17266;DHT22;8749;47.076;15.412;2022-08-02T08:50:45;27.70;94.40
17266;DHT22;8749;47.076;15.412;2022-08-02T08:53:14;27.80;94.10
17266;DHT22;8749;47.076;15.412;2022-08-02T08:55:41;27.80;94.10
17266;DHT22;8749;47.076;15.412;2022-08-02T08:58:11;28.00;93.90
17266;DHT22;8749;47.076;15.412;2022-08-02T09:00:40;28.00;93.50
17266;DHT22;8749;47.076;15.412;2022-08-02T09:03:07;28.20;93.30
17266;DHT22;8749;47.076;15.412;2022-08-02T09:05:35;28.30;93.10
17266;DHT22;8749;47.076;15.412;2022-08-02T09:08:02;28.50;93.30
17266;DHT22;8749;47.076;15.412;2022-08-02T09:10:35;28.60;93.10
17266;DHT22;8749;47.076;15.412;2022-08-02T09:13:11;28.80;92.80
17266;DHT22;8749;47.076;15.412;2022-08-02T09:15:40;29.00;92.50
17266;DHT22;8749;47.076;15.412;2022-08-02T09:18:08;29.20;92.80
17266;DHT22;8749;47.076;15.412;2022-08-02T09:20:50;29.30;92.30
17266;DHT22;8749;47.076;15.412;2022-08-02T09:23:17;29.40;91.60
17266;DHT22;8749;47.076;15.412;2022-08-02T09:25:55;29.50;91.10
17266;DHT22;8749;47.076;15.412;2022-08-02T09:28:27;29.40;90.80
17266;DHT22;8749;47.076;15.412;2022-08-02T09:31:03;29.40;90.70
17266;DHT22;8749;47.076;15.412;2022-08-02T09:33:30;29.30;91.00
17266;DHT22;8749;47.076;15.412;2022-08-02T09:35:59;29.30;91.10
17266;DHT22;8749;47.076;15.412;2022-08-02T09:38:27;29.40;91.00
17266;DHT22;8749;47.076;15.412;2022-08-02T09:40:54;29.30;91.40
17266;DHT22;8749;47.076;15.412;2022-08-02T09:43:21;29.30;91.40
17266;DHT22;8749;47.076;15.412;2022-08-02T09:46:09;29.30;91.20
17266;DHT22;8749;47.076;15.412;2022-08-02T09:48:45;29.00;91.10
17266;DHT22;8749;47.076;15.412;2022-08-02T09:51:15;28.70;91.00
17266;DHT22;8749;47.076;15.412;2022-08-02T09:53:42;28.60;91.30
17266;DHT22;8749;47.076;15.412;2022-08-02T09:56:09;28.50;91.50
17266;DHT22;8749;47.076;15.412;2022-08-02T09:58:37;28.30;91.40
17266;DHT22;8749;47.076;15.412;2022-08-02T10:01:06;28.20;91.70
17266;DHT22;8749;47.076;15.412;2022-08-02T10:03:33;28.00;92.90
17266;DHT22;8749;47.076;15.412;2022-08-02T10:06:00;27.80;94.40
17266;DHT22;8749;47.076;15.412;2022-08-02T10:08:29;27.60;97.00
17266;DHT22;8749;47.076;15.412;2022-08-02T10:10:57;27.40;99.10
17266;DHT22;8749;47.076;15.412;2022-08-02T10:13:29;26.90;99.70
17266;DHT22;8749;47.076;15.412;2022-08-02T10:15:56;26.40;99.90
17266;DHT22;8749;47.076;15.412;2022-08-02T10:18:25;26.00;99.90
17266;DHT22;8749;47.076;15.412;2022-08-02T10:20:53;26.10;99.90
17266;DHT22;8749;47.076;15.412;2022-08-02T10:23:24;25.70;99.90
17266;DHT22;8749;47.076;15.412;2022-08-02T10:25:52;25.70;99.90
17266;DHT22;8749;47.076;15.412;2022-08-02T10:28:25;25.50;99.90
17266;DHT22;8749;47.076;15.412;2022-08-02T10:30:53;25.60;99.90
17266;DHT22;8749;47.076;15.412;2022-08-02T10:33:21;25.40;99.90
17266;DHT22;8749;47.076;15.412;2022-08-02T10:35:53;25.30;99.90
17266;DHT22;8749;47.076;15.412;2022-08-02T10:38:22;25.30;99.90
17266;DHT22;8749;47.076;15.412;2022-08-02T10:40:51;25.20;99.90
17266;DHT22;8749;47.076;15.412;2022-08-02T10:43:48;25.00;99.90
17266;DHT22;8749;47.076;15.412;2022-08-02T10:46:23;24.90;99.90
17266;DHT22;8749;47.076;15.412;2022-08-02T10:49:10;24.80;99.90
17266;DHT22;8749;47.076;15.412;2022-08-02T10:52:07;24.80;99.90
17266;DHT22;8749;47.076;15.412;2022-08-02T10:54:37;24.70;99.90
17266;DHT22;8749;47.076;15.412;2022-08-02T10:57:14;24.70;99.90
17266;DHT22;8749;47.076;15.412;2022-08-02T10:59:42;24.80;99.90
17266;DHT22;8749;47.076;15.412;2022-08-02T11:02:09;24.80;99.90
17266;DHT22;8749;47.076;15.412;2022-08-02T11:05:01;25.00;99.90
17266;DHT22;8749;47.076;15.412;2022-08-02T11:07:36;25.00;99.90
17266;DHT22;8749;47.076;15.412;2022-08-02T11:10:32;25.20;99.90
17266;DHT22;8749;47.076;15.412;2022-08-02T11:13:01;25.30;99.90
17266;DHT22;8749;47.076;15.412;2022-08-02T11:15:29;25.60;99.90
17266;DHT22;8749;47.076;15.412;2022-08-02T11:17:57;25.80;99.90
17266;DHT22;8749;47.076;15.412;2022-08-02T11:20:25;25.90;99.90
17266;DHT22;8749;47.076;15.412;2022-08-02T11:22:54;25.90;99.90
17266;DHT22;8749;47.076;15.412;2022-08-02T11:25:31;26.10;99.90
17266;DHT22;8749;47.076;15.412;2022-08-02T11:27:59;26.30;99.90
17266;DHT22;8749;47.076;15.412;2022-08-02T11:30:27;26.30;99.90
17266;DHT22;8749;47.076;15.412;2022-08-02T11:32:55;26.50;99.90
17266;DHT22;8749;47.076;15.412;2022-08-02T11:35:24;26.80;99.90
17266;DHT22;8749;47.076;15.412;2022-08-02T11:38:11;27.00;99.90
17266;DHT22;8749;47.076;15.412;2022-08-02T11:40:38;27.20;99.90
17266;DHT22;8749;47.076;15.412;2022-08-02T11:43:15;27.30;99.90
17266;DHT22;8749;47.076;15.412;2022-08-02T11:45:42;27.50;99.90
17266;DHT22;8749;47.076;15.412;2022-08-02T11:48:09;27.60;99.90
17266;DHT22;8749;47.076;15.412;2022-08-02T11:50:36;27.60;99.90
17266;DHT22;8749;47.076;15.412;2022-08-02T11:53:13;27.40;99.90
17266;DHT22;8749;47.076;15.412;2022-08-02T11:55:41;27.70;99.90
17266;DHT22;8749;47.076;15.412;2022-08-02T11:58:09;27.80;99.90
17266;DHT22;8749;47.076;15.412;2022-08-02T12:00:37;27.70;99.90
17266;DHT22;8749;47.076;15.412;2022-08-02T12:03:06;27.60;99.90
17266;DHT22;8749;47.076;15.412;2022-08-02T12:05:33;27.70;99.90
17266;DHT22;8749;47.076;15.412;2022-08-02T12:08:05;27.60;99.90
17266;DHT22;8749;47.076;15.412;2022-08-02T12:10:33;27.70;99.90
17266;DHT22;8749;47.076;15.412;2022-08-02T12:13:00;27.80;99.90
17266;DHT22;8749;47.076;15.412;2022-08-02T12:15:35;28.00;99.90
17266;DHT22;8749;47.076;15.412;2022-08-02T12:18:03;28.10;99.90
17266;DHT22;8749;47.076;15.412;2022-08-02T12:20:52;28.20;99.60
17266;DHT22;8749;47.076;15.412;2022-08-02T12:23:19;28.40;99.40
17266;DHT22;8749;47.076;15.412;2022-08-02T12:25:59;28.50;98.90
17266;DHT22;8749;47.076;15.412;2022-08-02T12:28:26;28.10;99.60
17266;DHT22;8749;47.076;15.412;2022-08-02T12:30:55;28.00;99.90
17266;DHT22;8749;47.076;15.412;2022-08-02T12:33:27;28.30;98.20
17266;DHT22;8749;47.076;15.412;2022-08-02T12:35:55;28.50;98.10
17266;DHT22;8749;47.076;15.412;2022-08-02T12:38:22;28.90;97.80
17266;DHT22;8749;47.076;15.412;2022-08-02T12:40:50;29.30;97.60
17266;DHT22;8749;47.076;15.412;2022-08-02T12:43:21;29.60;98.50
17266;DHT22;8749;47.076;15.412;2022-08-02T12:45:50;29.80;97.90
17266;DHT22;8749;47.076;15.412;2022-08-02T12:48:29;30.00;97.50
17266;DHT22;8749;47.076;15.412;2022-08-02T12:50:56;30.10;97.30
17266;DHT22;8749;47.076;15.412;2022-08-02T12:53:31;30.00;96.90
17266;DHT22;8749;47.076;15.412;2022-08-02T12:56:00;30.10;97.10
17266;DHT22;8749;47.076;15.412;2022-08-02T12:58:27;30.20;96.20
17266;DHT22;8749;47.076;15.412;2022-08-02T13:00:55;30.40;95.60
17266;DHT22;8749;47.076;15.412;2022-08-02T13:03:23;30.70;95.30
17266;DHT22;8749;47.076;15.412;2022-08-02T13:05:50;31.10;94.60
17266;DHT22;8749;47.076;15.412;2022-08-02T13:08:17;31.30;94.10
17266;DHT22;8749;47.076;15.412;2022-08-02T13:10:44;31.10;94.20
17266;DHT22;8749;47.076;15.412;2022-08-02T13:13:13;30.70;94.80
17266;DHT22;8749;47.076;15.412;2022-08-02T13:15:39;30.20;94.80
17266;DHT22;8749;47.076;15.412;2022-08-02T13:18:07;29.90;95.10
17266;DHT22;8749;47.076;15.412;2022-08-02T13:20:35;30.20;94.80
17266;DHT22;8749;47.076;15.412;2022-08-02T13:23:02;30.30;93.70
17266;DHT22;8749;47.076;15.412;2022-08-02T13:25:29;30.20;94.10
17266;DHT22;8749;47.076;15.412;2022-08-02T13:27:56;30.30;93.60
17266;DHT22;8749;47.076;15.412;2022-08-02T13:30:24;30.30;94.00
17266;DHT22;8749;47.076;15.412;2022-08-02T13:32:51;30.70;93.30
17266;DHT22;8749;47.076;15.412;2022-08-02T13:35:18;30.90;92.70
17266;DHT22;8749;47.076;15.412;2022-08-02T13:37:46;31.20;91.90
17266;DHT22;8749;47.076;15.412;2022-08-02T13:40:13;31.60;91.40
17266;DHT22;8749;47.076;15.412;2022-08-02T13:42:40;32.00;90.90
17266;DHT22;8749;47.076;15.412;2022-08-02T13:45:08;32.40;90.40
17266;DHT22;8749;47.076;15.412;2022-08-02T13:47:38;32.40;89.60
17266;DHT22;8749;47.076;15.412;2022-08-02T13:50:06;32.20;89.60
17266;DHT22;8749;47.076;15.412;2022-08-02T13:52:33;31.90;88.70
17266;DHT22;8749;47.076;15.412;2022-08-02T13:55:00;31.70;88.90
17266;DHT22;8749;47.076;15.412;2022-08-02T13:57:27;31.70;89.90
17266;DHT22;8749;47.076;15.412;2022-08-02T13:59:54;32.30;88.80
17266;DHT22;8749;47.076;15.412;2022-08-02T14:02:21;33.00;87.70
17266;DHT22;8749;47.076;15.412;2022-08-02T14:04:49;33.40;88.20
17266;DHT22;8749;47.076;15.412;2022-08-02T14:07:16;33.20;86.70
17266;DHT22;8749;47.076;15.412;2022-08-02T14:09:43;33.10;86.70
17266;DHT22;8749;47.076;15.412;2022-08-02T14:12:10;33.00;87.00
17266;DHT22;8749;47.076;15.412;2022-08-02T14:14:37;33.00;86.60
17266;DHT22;8749;47.076;15.412;2022-08-02T14:17:04;33.00;86.20
17266;DHT22;8749;47.076;15.412;2022-08-02T14:19:31;33.20;86.40
17266;DHT22;8749;47.076;15.412;2022-08-02T14:21:59;33.20;87.30
17266;DHT22;8749;47.076;15.412;2022-08-02T14:24:26;33.20;88.00
17266;DHT22;8749;47.076;15.412;2022-08-02T14:26:53;33.10;87.40
17266;DHT22;8749;47.076;15.412;2022-08-02T14:29:20;32.80;87.20
17266;DHT22;8749;47.076;15.412;2022-08-02T14:31:47;32.60;87.90
17266;DHT22;8749;47.076;15.412;2022-08-02T14:34:14;32.50;87.50
17266;DHT22;8749;47.076;15.412;2022-08-02T14:36:41;32.30;88.50
17266;DHT22;8749;47.076;15.412;2022-08-02T14:39:09;32.20;89.30
17266;DHT22;8749;47.076;15.412;2022-08-02T14:41:36;32.00;89.50
17266;DHT22;8749;47.076;15.412;2022-08-02T14:44:04;31.90;90.10
17266;DHT22;8749;47.076;15.412;2022-08-02T14:46:33;31.80;89.90
17266;DHT22;8749;47.076;15.412;2022-08-02T14:49:00;31.80;89.40
17266;DHT22;8749;47.076;15.412;2022-08-02T14:51:29;31.80;89.80
17266;DHT22;8749;47.076;15.412;2022-08-02T14:53:56;31.80;89.80
17266;DHT22;8749;47.076;15.412;2022-08-02T14:56:25;31.80;88.40
17266;DHT22;8749;47.076;15.412;2022-08-02T14:58:52;31.60;88.20
17266;DHT22;8749;47.076;15.412;2022-08-02T15:01:19;31.60;88.70
17266;DHT22;8749;47.076;15.412;2022-08-02T15:03:46;31.60;88.50
17266;DHT22;8749;47.076;15.412;2022-08-02T15:06:13;31.70;88.10
17266;DHT22;8749;47.076;15.412;2022-08-02T15:08:40;31.90;88.00
17266;DHT22;8749;47.076;15.412;2022-08-02T15:11:08;32.50;88.30
17266;DHT22;8749;47.076;15.412;2022-08-02T15:13:36;33.20;87.60
17266;DHT22;8749;47.076;15.412;2022-08-02T15:16:04;34.00;85.70
17266;DHT22;8749;47.076;15.412;2022-08-02T15:18:31;34.50;84.90
17266;DHT22;8749;47.076;15.412;2022-08-02T15:20:58;34.90;82.70
17266;DHT22;8749;47.076;15.412;2022-08-02T15:23:25;35.10;81.30
17266;DHT22;8749;47.076;15.412;2022-08-02T15:25:53;35.30;79.60
17266;DHT22;8749;47.076;15.412;2022-08-02T15:28:20;35.60;79.60
17266;DHT22;8749;47.076;15.412;2022-08-02T15:30:48;36.20;79.60
17266;DHT22;8749;47.076;15.412;2022-08-02T15:33:15;35.80;75.70
17266;DHT22;8749;47.076;15.412;2022-08-02T15:35:42;35.60;77.00
17266;DHT22;8749;47.076;15.412;2022-08-02T15:38:09;35.60;75.90
17266;DHT22;8749;47.076;15.412;2022-08-02T15:40:36;35.60;76.10
17266;DHT22;8749;47.076;15.412;2022-08-02T15:43:03;35.60;75.60